Huvudsida
METAR-TAF:

METAR-TAF

Flygplatser :

Haugesunds flygplats. Karmøy

Haugesunds, Norge

latitud: 59-21N, longitud: 005-13E, höjd: 2 m

Aktuellt väderrapport

Denna rapport gjordes för 15 minuter sedan, klockan 12:20 UTC
Vind 9 kt från väst/nordväst
Temperatur 8°C
Fuktighet 93%
Tryck 1023 hPa
Sikt: 9000 m
Spridda moln på en höjd av 4800 ft

METAR: ENHD 211220Z 29009KT 9000 SCT048 08/07 Q1023

Tid: 13:35 (12:35 UTC)

Väderprognos

Denna rapport gjordes för 1 timme och 35 minuter sedan, klockan 11:00 UTC
Prognos gäller från 21 kl. 12 UTC till 21 kl. 21 UTC
Vind 12 kt från väst/nordväst
Sikt 10 km eller mer
Få moln på en höjd av 1500 ft
Brutna moln på en höjd av 2500 ft
Blir
från 21 kl. 17 UTC till 21 kl. 19 UTC
Vind 5 kt varierande vindriktning

TAF: ENHD 211100Z 2112/2121 30012KT 9999 FEW015 BKN025 BECMG 2117/2119 VRB05KT

Aktuella väderrapporter och prognoser från 4000 flygplatser (METAR- och TAF-rapporter).

De tillgängliga stationerna syns som gula och röda prickar på kartan.

För musen över prickarna för att se namnen på stationerna.

Klicka sedan för att få väderrapporter och prognoser.

För att ändra kartan: Klicka på de gröna knapparna med ett svart kors på för att zooma in; den gröna knappen med ett streck på för att zooma ut; eller på de gröna pilarna för angränsande kartor.


METAR-TAF: